sensor_id;sensor_type;location;lat;lon;timestamp;pressure;altitude;pressure_sealevel;temperature;humidity
45763;BME280;37512;52.408;13.356;2023-02-18T00:01:01;101026.72;;;6.42;100.00
45763;BME280;37512;52.408;13.356;2023-02-18T00:05:02;101028.69;;;6.33;100.00
45763;BME280;37512;52.408;13.356;2023-02-18T00:09:04;101037.44;;;6.44;100.00
45763;BME280;37512;52.408;13.356;2023-02-18T00:13:06;101044.56;;;6.36;100.00
45763;BME280;37512;52.408;13.356;2023-02-18T00:17:08;101052.22;;;6.39;100.00
45763;BME280;37512;52.408;13.356;2023-02-18T00:21:09;101059.34;;;6.32;100.00
45763;BME280;37512;52.408;13.356;2023-02-18T00:25:11;101055.78;;;6.31;100.00
45763;BME280;37512;52.408;13.356;2023-02-18T00:29:13;101072.81;;;6.24;100.00
45763;BME280;37512;52.408;13.356;2023-02-18T00:33:14;101067.97;;;6.30;100.00
45763;BME280;37512;52.408;13.356;2023-02-18T00:37:16;101061.47;;;6.17;100.00
45763;BME280;37512;52.408;13.356;2023-02-18T00:41:18;101059.38;;;6.14;100.00
45763;BME280;37512;52.408;13.356;2023-02-18T00:45:20;101068.16;;;6.16;100.00
45763;BME280;37512;52.408;13.356;2023-02-18T00:49:22;101084.19;;;6.14;100.00
45763;BME280;37512;52.408;13.356;2023-02-18T00:53:23;101071.88;;;6.03;100.00
45763;BME280;37512;52.408;13.356;2023-02-18T00:57:25;101077.22;;;6.08;100.00
45763;BME280;37512;52.408;13.356;2023-02-18T01:01:27;101091.97;;;6.03;100.00
45763;BME280;37512;52.408;13.356;2023-02-18T01:05:28;101075.94;;;5.97;100.00
45763;BME280;37512;52.408;13.356;2023-02-18T01:09:30;101074.94;;;5.93;100.00
45763;BME280;37512;52.408;13.356;2023-02-18T01:13:32;101069.63;;;5.96;100.00
45763;BME280;37512;52.408;13.356;2023-02-18T01:17:33;101071.88;;;5.94;100.00
45763;BME280;37512;52.408;13.356;2023-02-18T01:21:35;101102.00;;;5.73;100.00
45763;BME280;37512;52.408;13.356;2023-02-18T01:25:37;101068.28;;;5.76;100.00
45763;BME280;37512;52.408;13.356;2023-02-18T01:29:38;101070.72;;;5.69;100.00
45763;BME280;37512;52.408;13.356;2023-02-18T01:33:41;101076.72;;;5.62;100.00
45763;BME280;37512;52.408;13.356;2023-02-18T01:37:42;101075.91;;;5.71;100.00
45763;BME280;37512;52.408;13.356;2023-02-18T01:41:44;101067.16;;;5.77;100.00
45763;BME280;37512;52.408;13.356;2023-02-18T01:45:49;101078.19;;;5.77;100.00
45763;BME280;37512;52.408;13.356;2023-02-18T01:49:52;101065.69;;;5.71;100.00
45763;BME280;37512;52.408;13.356;2023-02-18T01:54:21;101062.78;;;5.68;100.00
45763;BME280;37512;52.408;13.356;2023-02-18T01:58:25;101080.13;;;5.59;100.00
45763;BME280;37512;52.408;13.356;2023-02-18T02:02:31;101079.28;;;5.68;100.00
45763;BME280;37512;52.408;13.356;2023-02-18T02:06:33;101080.28;;;5.54;100.00
45763;BME280;37512;52.408;13.356;2023-02-18T02:10:45;101072.84;;;5.63;100.00
45763;BME280;37512;52.408;13.356;2023-02-18T02:40:38;101068.28;;;5.59;100.00
45763;BME280;37512;52.408;13.356;2023-02-18T02:44:57;101073.81;;;5.59;100.00
45763;BME280;37512;52.408;13.356;2023-02-18T02:53:34;101078.00;;;5.56;100.00
45763;BME280;37512;52.408;13.356;2023-02-18T02:57:45;101089.19;;;5.60;100.00
45763;BME280;37512;52.408;13.356;2023-02-18T03:14:27;101082.03;;;5.50;100.00
45763;BME280;37512;52.408;13.356;2023-02-18T03:18:36;101089.84;;;5.57;100.00
45763;BME280;37512;52.408;13.356;2023-02-18T03:22:43;101095.16;;;5.53;100.00
45763;BME280;37512;52.408;13.356;2023-02-18T03:26:50;101088.53;;;5.45;100.00
45763;BME280;37512;52.408;13.356;2023-02-18T03:30:56;101083.50;;;5.56;100.00
45763;BME280;37512;52.408;13.356;2023-02-18T03:35:10;101104.72;;;5.56;100.00
45763;BME280;37512;52.408;13.356;2023-02-18T03:39:15;101086.75;;;5.58;100.00
45763;BME280;37512;52.408;13.356;2023-02-18T03:43:17;101082.03;;;5.68;100.00
45763;BME280;37512;52.408;13.356;2023-02-18T03:47:19;101085.91;;;5.49;100.00
45763;BME280;37512;52.408;13.356;2023-02-18T03:51:20;101082.03;;;5.41;100.00
45763;BME280;37512;52.408;13.356;2023-02-18T03:55:22;101090.75;;;5.35;100.00
45763;BME280;37512;52.408;13.356;2023-02-18T03:59:24;101081.34;;;5.36;100.00
45763;BME280;37512;52.408;13.356;2023-02-18T04:03:25;101077.78;;;5.35;100.00
45763;BME280;37512;52.408;13.356;2023-02-18T04:07:27;101071.66;;;5.30;100.00
45763;BME280;37512;52.408;13.356;2023-02-18T04:11:28;101079.06;;;5.20;100.00
45763;BME280;37512;52.408;13.356;2023-02-18T04:15:30;101077.47;;;5.28;100.00
45763;BME280;37512;52.408;13.356;2023-02-18T04:19:32;101080.53;;;5.27;100.00
45763;BME280;37512;52.408;13.356;2023-02-18T04:23:33;101078.25;;;5.20;100.00
45763;BME280;37512;52.408;13.356;2023-02-18T04:27:34;101081.34;;;5.18;100.00
45763;BME280;37512;52.408;13.356;2023-02-18T04:31:36;101075.00;;;5.09;100.00
45763;BME280;37512;52.408;13.356;2023-02-18T04:35:38;101083.44;;;5.21;100.00
45763;BME280;37512;52.408;13.356;2023-02-18T04:39:42;101090.56;;;5.22;100.00
45763;BME280;37512;52.408;13.356;2023-02-18T04:43:43;101090.09;;;5.20;100.00
45763;BME280;37512;52.408;13.356;2023-02-18T04:47:45;101096.84;;;5.14;100.00
45763;BME280;37512;52.408;13.356;2023-02-18T04:51:46;101087.19;;;5.26;100.00
45763;BME280;37512;52.408;13.356;2023-02-18T04:55:51;101098.34;;;5.20;100.00
45763;BME280;37512;52.408;13.356;2023-02-18T04:59:53;101092.06;;;5.37;100.00
45763;BME280;37512;52.408;13.356;2023-02-18T05:03:54;101092.53;;;5.31;100.00
45763;BME280;37512;52.408;13.356;2023-02-18T05:07:56;101090.28;;;5.41;100.00
45763;BME280;37512;52.408;13.356;2023-02-18T05:11:57;101094.66;;;5.51;100.00
45763;BME280;37512;52.408;13.356;2023-02-18T05:15:59;101097.75;;;5.50;100.00
45763;BME280;37512;52.408;13.356;2023-02-18T05:20:01;101092.06;;;5.46;100.00
45763;BME280;37512;52.408;13.356;2023-02-18T05:24:03;101098.06;;;5.48;100.00
45763;BME280;37512;52.408;13.356;2023-02-18T05:28:04;101091.13;;;5.59;99.73
45763;BME280;37512;52.408;13.356;2023-02-18T05:32:05;101089.00;;;5.65;98.99
45763;BME280;37512;52.408;13.356;2023-02-18T05:36:07;101087.41;;;5.55;98.47
45763;BME280;37512;52.408;13.356;2023-02-18T05:40:10;101089.00;;;5.65;99.31
45763;BME280;37512;52.408;13.356;2023-02-18T05:44:12;101078.81;;;5.65;98.11
45763;BME280;37512;52.408;13.356;2023-02-18T05:48:31;101077.69;;;5.66;97.73
45763;BME280;37512;52.408;13.356;2023-02-18T05:52:33;101067.00;;;5.74;97.67
45763;BME280;37512;52.408;13.356;2023-02-18T05:56:34;101078.66;;;5.88;98.00
45763;BME280;37512;52.408;13.356;2023-02-18T06:00:36;101081.56;;;5.83;97.93
45763;BME280;37512;52.408;13.356;2023-02-18T06:04:37;101077.34;;;5.77;98.45
45763;BME280;37512;52.408;13.356;2023-02-18T06:08:40;101073.81;;;5.85;98.65
45763;BME280;37512;52.408;13.356;2023-02-18T06:12:42;101080.09;;;5.77;98.73
45763;BME280;37512;52.408;13.356;2023-02-18T06:16:43;101080.28;;;5.72;99.00
45763;BME280;37512;52.408;13.356;2023-02-18T06:20:48;101077.84;;;5.79;98.80
45763;BME280;37512;52.408;13.356;2023-02-18T06:24:50;101080.81;;;6.00;98.17
45763;BME280;37512;52.408;13.356;2023-02-18T06:28:51;101072.50;;;5.82;98.45
45763;BME280;37512;52.408;13.356;2023-02-18T06:32:53;101074.28;;;5.87;99.31
45763;BME280;37512;52.408;13.356;2023-02-18T06:36:55;101075.75;;;5.84;99.60
45763;BME280;37512;52.408;13.356;2023-02-18T06:40:56;101073.81;;;5.85;99.47
45763;BME280;37512;52.408;13.356;2023-02-18T06:44:58;101068.78;;;5.87;100.00
45763;BME280;37512;52.408;13.356;2023-02-18T06:48:59;101069.28;;;5.89;98.80
45763;BME280;37512;52.408;13.356;2023-02-18T06:53:01;101068.28;;;5.94;98.29
45763;BME280;37512;52.408;13.356;2023-02-18T06:57:02;101070.72;;;5.95;96.56
45763;BME280;37512;52.408;13.356;2023-02-18T07:01:04;101063.63;;;6.12;96.61
45763;BME280;37512;52.408;13.356;2023-02-18T07:05:05;101069.94;;;6.03;95.50
45763;BME280;37512;52.408;13.356;2023-02-18T07:09:07;101071.22;;;6.23;97.09
45763;BME280;37512;52.408;13.356;2023-02-18T07:13:09;101060.19;;;6.23;95.94
45763;BME280;37512;52.408;13.356;2023-02-18T07:17:10;101076.09;;;6.00;100.00
45763;BME280;37512;52.408;13.356;2023-02-18T07:21:12;101066.84;;;6.05;100.00
45763;BME280;37512;52.408;13.356;2023-02-18T07:25:14;101090.00;;;5.78;100.00
45763;BME280;37512;52.408;13.356;2023-02-18T07:29:15;101070.41;;;5.97;100.00
45763;BME280;37512;52.408;13.356;2023-02-18T07:33:17;101071.22;;;5.80;100.00
45763;BME280;37512;52.408;13.356;2023-02-18T07:37:19;101067.16;;;5.77;100.00
45763;BME280;37512;52.408;13.356;2023-02-18T07:41:22;101059.38;;;5.62;100.00
45763;BME280;37512;52.408;13.356;2023-02-18T07:45:24;101050.81;;;5.63;100.00
45763;BME280;37512;52.408;13.356;2023-02-18T07:49:26;101034.44;;;5.41;100.00
45763;BME280;37512;52.408;13.356;2023-02-18T07:53:27;101016.47;;;5.52;100.00
45763;BME280;37512;52.408;13.356;2023-02-18T07:57:29;101019.19;;;5.43;100.00
45763;BME280;37512;52.408;13.356;2023-02-18T08:01:30;101028.72;;;5.11;100.00
45763;BME280;37512;52.408;13.356;2023-02-18T08:05:32;101019.81;;;5.40;100.00
45763;BME280;37512;52.408;13.356;2023-02-18T08:09:33;101023.03;;;5.08;100.00
45763;BME280;37512;52.408;13.356;2023-02-18T08:13:35;101014.63;;;5.04;100.00
45763;BME280;37512;52.408;13.356;2023-02-18T08:17:36;101005.25;;;5.14;100.00
45763;BME280;37512;52.408;13.356;2023-02-18T08:21:38;100993.75;;;5.20;100.00
45763;BME280;37512;52.408;13.356;2023-02-18T08:25:39;100994.41;;;5.09;100.00
45763;BME280;37512;52.408;13.356;2023-02-18T08:29:41;100980.97;;;5.16;100.00
45763;BME280;37512;52.408;13.356;2023-02-18T08:33:42;100981.16;;;5.45;100.00
45763;BME280;37512;52.408;13.356;2023-02-18T08:37:44;100975.16;;;5.26;100.00
45763;BME280;37512;52.408;13.356;2023-02-18T08:41:55;100972.25;;;5.66;100.00
45763;BME280;37512;52.408;13.356;2023-02-18T08:45:58;100955.72;;;5.66;100.00
45763;BME280;37512;52.408;13.356;2023-02-18T08:49:59;100955.84;;;6.04;100.00
45763;BME280;37512;52.408;13.356;2023-02-18T08:54:01;100952.41;;;5.90;100.00
45763;BME280;37512;52.408;13.356;2023-02-18T08:58:04;100948.25;;;5.84;100.00
45763;BME280;37512;52.408;13.356;2023-02-18T09:02:06;100947.88;;;5.85;100.00
45763;BME280;37512;52.408;13.356;2023-02-18T09:06:08;100950.00;;;5.97;100.00
45763;BME280;37512;52.408;13.356;2023-02-18T09:10:10;100936.50;;;6.13;100.00
45763;BME280;37512;52.408;13.356;2023-02-18T09:14:12;100925.88;;;5.94;100.00
45763;BME280;37512;52.408;13.356;2023-02-18T09:18:14;100917.28;;;5.87;100.00
45763;BME280;37512;52.408;13.356;2023-02-18T09:22:15;100905.28;;;5.83;100.00
45763;BME280;37512;52.408;13.356;2023-02-18T09:26:18;100903.53;;;5.70;100.00
45763;BME280;37512;52.408;13.356;2023-02-18T09:30:23;100894.25;;;5.83;100.00
45763;BME280;37512;52.408;13.356;2023-02-18T09:34:25;100893.19;;;5.66;100.00
45763;BME280;37512;52.408;13.356;2023-02-18T09:38:26;100882.84;;;5.55;100.00
45763;BME280;37512;52.408;13.356;2023-02-18T09:42:31;100888.78;;;5.65;100.00
45763;BME280;37512;52.408;13.356;2023-02-18T09:47:16;100870.16;;;5.80;100.00
45763;BME280;37512;52.408;13.356;2023-02-18T09:51:17;100857.06;;;5.68;100.00
45763;BME280;37512;52.408;13.356;2023-02-18T09:59:29;100835.53;;;5.61;100.00
45763;BME280;37512;52.408;13.356;2023-02-18T10:03:31;100840.22;;;5.61;100.00
45763;BME280;37512;52.408;13.356;2023-02-18T10:07:33;100834.97;;;5.77;100.00
45763;BME280;37512;52.408;13.356;2023-02-18T10:11:41;100825.78;;;5.73;100.00
45763;BME280;37512;52.408;13.356;2023-02-18T10:15:44;100823.69;;;5.61;100.00
45763;BME280;37512;52.408;13.356;2023-02-18T10:19:47;100827.91;;;5.58;100.00
45763;BME280;37512;52.408;13.356;2023-02-18T10:28:30;100794.94;;;5.50;100.00
45763;BME280;37512;52.408;13.356;2023-02-18T10:32:35;100778.97;;;5.73;100.00
45763;BME280;37512;52.408;13.356;2023-02-18T10:36:46;100761.56;;;5.81;100.00
45763;BME280;37512;52.408;13.356;2023-02-18T10:40:53;100758.16;;;5.54;100.00
45763;BME280;37512;52.408;13.356;2023-02-18T10:45:07;100733.06;;;5.47;100.00
45763;BME280;37512;52.408;13.356;2023-02-18T10:49:37;100720.38;;;5.63;100.00
45763;BME280;37512;52.408;13.356;2023-02-18T10:53:43;100707.53;;;5.68;100.00
45763;BME280;37512;52.408;13.356;2023-02-18T10:57:53;100690.84;;;5.73;100.00
45763;BME280;37512;52.408;13.356;2023-02-18T11:02:01;100686.66;;;5.66;100.00
45763;BME280;37512;52.408;13.356;2023-02-18T11:06:05;100663.22;;;5.52;100.00
45763;BME280;37512;52.408;13.356;2023-02-18T11:10:18;100651.06;;;5.61;100.00
45763;BME280;37512;52.408;13.356;2023-02-18T11:14:36;100638.44;;;5.52;100.00
45763;BME280;37512;52.408;13.356;2023-02-18T11:18:41;100622.78;;;5.52;100.00
45763;BME280;37512;52.408;13.356;2023-02-18T11:22:42;100614.16;;;5.54;100.00
45763;BME280;37512;52.408;13.356;2023-02-18T11:26:45;100606.59;;;5.72;100.00
45763;BME280;37512;52.408;13.356;2023-02-18T11:30:49;100602.56;;;5.69;100.00
45763;BME280;37512;52.408;13.356;2023-02-18T11:34:54;100596.00;;;5.82;100.00
45763;BME280;37512;52.408;13.356;2023-02-18T11:39:01;100571.06;;;5.79;100.00
45763;BME280;37512;52.408;13.356;2023-02-18T11:43:14;100574.63;;;5.79;100.00
45763;BME280;37512;52.408;13.356;2023-02-18T11:47:19;100558.78;;;5.97;100.00
45763;BME280;37512;52.408;13.356;2023-02-18T11:51:25;100540.91;;;6.03;100.00
45763;BME280;37512;52.408;13.356;2023-02-18T11:55:28;100532.25;;;6.26;100.00
45763;BME280;37512;52.408;13.356;2023-02-18T11:59:34;100528.63;;;6.34;100.00
45763;BME280;37512;52.408;13.356;2023-02-18T12:08:13;100495.13;;;6.69;100.00
45763;BME280;37512;52.408;13.356;2023-02-18T12:12:26;100492.06;;;7.36;100.00
45763;BME280;37512;52.408;13.356;2023-02-18T12:20:55;100478.19;;;7.60;100.00
45763;BME280;37512;52.408;13.356;2023-02-18T12:25:21;100464.06;;;7.49;100.00
45763;BME280;37512;52.408;13.356;2023-02-18T12:30:02;100455.88;;;7.53;100.00
45763;BME280;37512;52.408;13.356;2023-02-18T12:43:32;100451.41;;;8.21;100.00
45763;BME280;37512;52.408;13.356;2023-02-18T12:48:04;100442.13;;;8.29;100.00
45763;BME280;37512;52.408;13.356;2023-02-18T13:05:11;100418.94;;;9.00;100.00
45763;BME280;37512;52.408;13.356;2023-02-18T13:13:39;100411.63;;;9.28;100.00
45763;BME280;37512;52.408;13.356;2023-02-18T13:17:46;100381.91;;;9.25;100.00
45763;BME280;37512;52.408;13.356;2023-02-18T13:21:52;100385.47;;;9.45;100.00
45763;BME280;37512;52.408;13.356;2023-02-18T13:25:58;100368.91;;;9.48;100.00
45763;BME280;37512;52.408;13.356;2023-02-18T13:39:07;100376.00;;;9.46;100.00
45763;BME280;37512;52.408;13.356;2023-02-18T13:47:37;100377.59;;;9.47;100.00
45763;BME280;37512;52.408;13.356;2023-02-18T13:51:43;100389.63;;;9.35;100.00
45763;BME280;37512;52.408;13.356;2023-02-18T13:59:58;100377.38;;;9.36;100.00
45763;BME280;37512;52.408;13.356;2023-02-18T14:04:02;100371.50;;;9.37;100.00
45763;BME280;37512;52.408;13.356;2023-02-18T14:08:28;100369.06;;;9.36;100.00
45763;BME280;37512;52.408;13.356;2023-02-18T14:17:27;100402.69;;;9.15;100.00
45763;BME280;37512;52.408;13.356;2023-02-18T14:25:40;100402.16;;;9.29;100.00
45763;BME280;37512;52.408;13.356;2023-02-18T14:29:42;100381.25;;;9.31;100.00
45763;BME280;37512;52.408;13.356;2023-02-18T14:51:39;100371.63;;;9.25;100.00
45763;BME280;37512;52.408;13.356;2023-02-18T14:55:44;100377.25;;;9.29;100.00
45763;BME280;37512;52.408;13.356;2023-02-18T14:59:47;100376.81;;;9.27;100.00
45763;BME280;37512;52.408;13.356;2023-02-18T15:03:51;100375.28;;;9.29;100.00
45763;BME280;37512;52.408;13.356;2023-02-18T15:08:04;100384.88;;;9.16;100.00
45763;BME280;37512;52.408;13.356;2023-02-18T15:12:09;100411.03;;;9.18;100.00
45763;BME280;37512;52.408;13.356;2023-02-18T15:16:18;100382.66;;;9.21;100.00
45763;BME280;37512;52.408;13.356;2023-02-18T15:20:22;100411.19;;;9.06;100.00
45763;BME280;37512;52.408;13.356;2023-02-18T15:24:25;100429.91;;;9.13;100.00
45763;BME280;37512;52.408;13.356;2023-02-18T15:28:29;100409.94;;;9.04;100.00
45763;BME280;37512;52.408;13.356;2023-02-18T15:32:31;100411.19;;;9.06;100.00
45763;BME280;37512;52.408;13.356;2023-02-18T15:36:33;100422.13;;;9.18;100.00
45763;BME280;37512;52.408;13.356;2023-02-18T15:40:36;100442.09;;;9.08;100.00
45763;BME280;37512;52.408;13.356;2023-02-18T15:44:45;100423.19;;;9.14;100.00
45763;BME280;37512;52.408;13.356;2023-02-18T15:48:48;100452.72;;;9.06;100.00
45763;BME280;37512;52.408;13.356;2023-02-18T15:52:53;100455.63;;;9.13;100.00
45763;BME280;37512;52.408;13.356;2023-02-18T15:57:00;100474.13;;;9.09;100.00
45763;BME280;37512;52.408;13.356;2023-02-18T16:01:05;100462.53;;;9.04;100.00
45763;BME280;37512;52.408;13.356;2023-02-18T16:05:12;100482.09;;;9.11;100.00
45763;BME280;37512;52.408;13.356;2023-02-18T16:09:22;100485.44;;;9.20;100.00
45763;BME280;37512;52.408;13.356;2023-02-18T16:13:24;100494.56;;;9.20;100.00
45763;BME280;37512;52.408;13.356;2023-02-18T16:17:28;100501.97;;;9.16;100.00
45763;BME280;37512;52.408;13.356;2023-02-18T16:21:35;100501.53;;;9.14;100.00
45763;BME280;37512;52.408;13.356;2023-02-18T16:25:42;100500.81;;;9.17;100.00
45763;BME280;37512;52.408;13.356;2023-02-18T16:29:44;100512.19;;;9.12;100.00
45763;BME280;37512;52.408;13.356;2023-02-18T16:33:47;100516.03;;;9.08;100.00
45763;BME280;37512;52.408;13.356;2023-02-18T16:37:49;100532.19;;;9.06;100.00
45763;BME280;37512;52.408;13.356;2023-02-18T16:41:51;100533.69;;;9.03;100.00
45763;BME280;37512;52.408;13.356;2023-02-18T16:45:56;100524.75;;;9.10;100.00
45763;BME280;37512;52.408;13.356;2023-02-18T16:49:58;100547.09;;;9.17;100.00
45763;BME280;37512;52.408;13.356;2023-02-18T16:54:00;100540.66;;;9.13;100.00
45763;BME280;37512;52.408;13.356;2023-02-18T16:58:02;100541.81;;;9.12;100.00
45763;BME280;37512;52.408;13.356;2023-02-18T17:02:03;100544.75;;;9.19;100.00
45763;BME280;37512;52.408;13.356;2023-02-18T17:06:05;100556.56;;;9.16;100.00
45763;BME280;37512;52.408;13.356;2023-02-18T17:10:07;100587.13;;;9.04;100.00
45763;BME280;37512;52.408;13.356;2023-02-18T17:14:13;100605.88;;;9.10;100.00
45763;BME280;37512;52.408;13.356;2023-02-18T17:18:14;100631.00;;;8.73;100.00
45763;BME280;37512;52.408;13.356;2023-02-18T17:22:16;100648.63;;;8.81;100.00
45763;BME280;37512;52.408;13.356;2023-02-18T17:26:26;100665.50;;;8.76;100.00
45763;BME280;37512;52.408;13.356;2023-02-18T17:30:29;100705.53;;;8.26;100.00
45763;BME280;37512;52.408;13.356;2023-02-18T17:34:32;100719.97;;;7.94;100.00
45763;BME280;37512;52.408;13.356;2023-02-18T17:38:36;100724.00;;;7.72;100.00
45763;BME280;37512;52.408;13.356;2023-02-18T17:42:37;100739.66;;;7.68;100.00
45763;BME280;37512;52.408;13.356;2023-02-18T17:46:39;100751.28;;;7.62;100.00
45763;BME280;37512;52.408;13.356;2023-02-18T17:50:40;100752.31;;;7.45;100.00
45763;BME280;37512;52.408;13.356;2023-02-18T17:54:42;100758.47;;;7.29;100.00
45763;BME280;37512;52.408;13.356;2023-02-18T17:58:44;100763.53;;;7.27;100.00
45763;BME280;37512;52.408;13.356;2023-02-18T18:02:47;100772.72;;;7.19;100.00
45763;BME280;37512;52.408;13.356;2023-02-18T18:06:48;100786.28;;;7.12;100.00
45763;BME280;37512;52.408;13.356;2023-02-18T18:10:52;100788.09;;;7.08;100.00
45763;BME280;37512;52.408;13.356;2023-02-18T18:14:55;100789.44;;;7.02;100.00
45763;BME280;37512;52.408;13.356;2023-02-18T18:18:56;100803.38;;;7.05;100.00
45763;BME280;37512;52.408;13.356;2023-02-18T18:23:00;100803.59;;;7.00;100.00
45763;BME280;37512;52.408;13.356;2023-02-18T18:27:02;100814.28;;;7.02;100.00
45763;BME280;37512;52.408;13.356;2023-02-18T18:31:03;100814.63;;;6.79;100.00
45763;BME280;37512;52.408;13.356;2023-02-18T18:35:25;100829.63;;;6.90;100.00
45763;BME280;37512;52.408;13.356;2023-02-18T18:39:27;100848.31;;;6.94;100.00
45763;BME280;37512;52.408;13.356;2023-02-18T18:43:30;100850.22;;;6.93;100.00
45763;BME280;37512;52.408;13.356;2023-02-18T18:47:34;100852.59;;;6.82;100.00
45763;BME280;37512;52.408;13.356;2023-02-18T18:51:35;100865.38;;;6.87;100.00
45763;BME280;37512;52.408;13.356;2023-02-18T18:55:38;100866.56;;;6.77;100.00
45763;BME280;37512;52.408;13.356;2023-02-18T18:59:40;100878.28;;;6.74;100.00
45763;BME280;37512;52.408;13.356;2023-02-18T19:03:43;100869.91;;;6.70;100.00
45763;BME280;37512;52.408;13.356;2023-02-18T19:07:46;100878.97;;;6.71;100.00
45763;BME280;37512;52.408;13.356;2023-02-18T19:11:48;100878.69;;;6.64;100.00
45763;BME280;37512;52.408;13.356;2023-02-18T19:15:59;100882.06;;;6.69;100.00
45763;BME280;37512;52.408;13.356;2023-02-18T19:20:02;100880.41;;;6.47;100.00
45763;BME280;37512;52.408;13.356;2023-02-18T19:28:16;100897.38;;;6.58;100.00
45763;BME280;37512;52.408;13.356;2023-02-18T19:32:20;100897.63;;;6.44;100.00
45763;BME280;37512;52.408;13.356;2023-02-18T19:36:21;100912.69;;;6.47;100.00
45763;BME280;37512;52.408;13.356;2023-02-18T19:40:25;100925.00;;;6.49;100.00
45763;BME280;37512;52.408;13.356;2023-02-18T19:44:33;100918.69;;;6.49;100.00
45763;BME280;37512;52.408;13.356;2023-02-18T19:48:34;100928.78;;;6.36;100.00
45763;BME280;37512;52.408;13.356;2023-02-18T19:52:36;100935.63;;;6.30;100.00
45763;BME280;37512;52.408;13.356;2023-02-18T19:56:37;100931.72;;;6.31;100.00
45763;BME280;37512;52.408;13.356;2023-02-18T20:00:39;100934.63;;;6.43;100.00
45763;BME280;37512;52.408;13.356;2023-02-18T20:04:41;100928.44;;;6.46;100.00
45763;BME280;37512;52.408;13.356;2023-02-18T20:08:43;100933.53;;;6.27;100.00
45763;BME280;37512;52.408;13.356;2023-02-18T20:12:50;100935.94;;;6.37;100.00
45763;BME280;37512;52.408;13.356;2023-02-18T20:16:53;100940.25;;;6.47;100.00
45763;BME280;37512;52.408;13.356;2023-02-18T20:20:54;100942.00;;;6.52;100.00
45763;BME280;37512;52.408;13.356;2023-02-18T20:24:56;100944.88;;;6.34;100.00
45763;BME280;37512;52.408;13.356;2023-02-18T20:28:57;100951.03;;;6.31;100.00
45763;BME280;37512;52.408;13.356;2023-02-18T20:32:59;100949.22;;;6.35;100.00
45763;BME280;37512;52.408;13.356;2023-02-18T20:37:00;100946.53;;;6.18;100.00
45763;BME280;37512;52.408;13.356;2023-02-18T20:41:10;100944.16;;;6.07;100.00
45763;BME280;37512;52.408;13.356;2023-02-18T20:45:12;100944.88;;;6.34;100.00
45763;BME280;37512;52.408;13.356;2023-02-18T20:49:16;100949.44;;;6.21;100.00
45763;BME280;37512;52.408;13.356;2023-02-18T20:53:18;100961.75;;;6.24;100.00
45763;BME280;37512;52.408;13.356;2023-02-18T20:57:20;100972.78;;;6.24;100.00
45763;BME280;37512;52.408;13.356;2023-02-18T21:01:21;100973.94;;;6.23;100.00
45763;BME280;37512;52.408;13.356;2023-02-18T21:05:23;100978.63;;;6.22;100.00
45763;BME280;37512;52.408;13.356;2023-02-18T21:09:24;100973.78;;;6.19;100.00
45763;BME280;37512;52.408;13.356;2023-02-18T21:13:26;100965.53;;;6.02;100.00
45763;BME280;37512;52.408;13.356;2023-02-18T21:17:27;100968.94;;;6.07;100.00
45763;BME280;37512;52.408;13.356;2023-02-18T21:21:29;100978.81;;;6.08;100.00
45763;BME280;37512;52.408;13.356;2023-02-18T21:25:31;100982.88;;;5.94;100.00
45763;BME280;37512;52.408;13.356;2023-02-18T21:29:33;100986.31;;;5.99;100.00
45763;BME280;37512;52.408;13.356;2023-02-18T21:33:34;100986.78;;;6.01;100.00
45763;BME280;37512;52.408;13.356;2023-02-18T21:37:36;100985.81;;;5.97;100.00
45763;BME280;37512;52.408;13.356;2023-02-18T21:41:39;100994.28;;;5.75;100.00
45763;BME280;37512;52.408;13.356;2023-02-18T21:45:41;100998.13;;;5.74;100.00
45763;BME280;37512;52.408;13.356;2023-02-18T21:49:43;100997.03;;;5.75;100.00
45763;BME280;37512;52.408;13.356;2023-02-18T21:53:44;100988.09;;;5.69;100.00
45763;BME280;37512;52.408;13.356;2023-02-18T21:57:46;100977.88;;;5.61;100.00
45763;BME280;37512;52.408;13.356;2023-02-18T22:01:47;100986.47;;;5.77;100.00
45763;BME280;37512;52.408;13.356;2023-02-18T22:05:49;100991.50;;;5.57;100.00
45763;BME280;37512;52.408;13.356;2023-02-18T22:09:51;100996.84;;;5.45;100.00
45763;BME280;37512;52.408;13.356;2023-02-18T22:13:54;100992.00;;;5.51;100.00
45763;BME280;37512;52.408;13.356;2023-02-18T22:17:55;100998.97;;;5.57;100.00
45763;BME280;37512;52.408;13.356;2023-02-18T22:21:57;101006.88;;;5.67;100.00
45763;BME280;37512;52.408;13.356;2023-02-18T22:26:03;101011.25;;;5.77;100.00
45763;BME280;37512;52.408;13.356;2023-02-18T22:30:05;101007.38;;;5.69;100.00
45763;BME280;37512;52.408;13.356;2023-02-18T22:34:08;101014.00;;;5.77;100.00
45763;BME280;37512;52.408;13.356;2023-02-18T22:38:09;101009.50;;;5.46;100.00
45763;BME280;37512;52.408;13.356;2023-02-18T22:42:11;101017.09;;;5.58;100.00
45763;BME280;37512;52.408;13.356;2023-02-18T22:46:14;101016.13;;;5.62;100.00
45763;BME280;37512;52.408;13.356;2023-02-18T22:50:16;101009.16;;;5.65;100.00
45763;BME280;37512;52.408;13.356;2023-02-18T22:54:18;101003.66;;;5.82;100.00
45763;BME280;37512;52.408;13.356;2023-02-18T22:58:20;101008.34;;;5.64;100.00
45763;BME280;37512;52.408;13.356;2023-02-18T23:02:21;101001.72;;;5.57;100.00
45763;BME280;37512;52.408;13.356;2023-02-18T23:06:25;101002.53;;;5.57;100.00
45763;BME280;37512;52.408;13.356;2023-02-18T23:10:26;101008.84;;;5.58;100.00
45763;BME280;37512;52.408;13.356;2023-02-18T23:14:28;101002.03;;;5.47;100.00